Time;durP1;ratioP1;P1;durP2;ratioP2;P2;SDS_P1;SDS_P2;PMS_P1;PMS_P2;Temp;Humidity;BMP_temperature;BMP_pressure;BME280_temperature;BME280_humidity;BME280_pressure;Samples;Min_cycle;Max_cycle;Signal;HPM_P1;HPM_P2
2022/05/26 00:01:59;;;;;;;2.08;1.45;;;;;;;16.75;60.64;98903.69;5032162;28;20044;-83
2022/05/26 00:04:30;;;;;;;2.72;1.60;;;;;;;16.71;61.08;98893.75;5039002;28;20052;-83
2022/05/26 00:07:01;;;;;;;1.80;1.60;;;;;;;16.73;61.10;98897.75;5023327;28;20128;-78
2022/05/26 00:09:26;;;;;;;5.00;2.05;;;;;;;16.72;61.13;98903.44;5033664;28;20368;-77
2022/05/26 00:11:52;;;;;;;1.33;1.00;;;;;;;16.70;60.88;98900.22;5032472;28;20037;-77
2022/05/26 00:14:17;;;;;;;3.75;1.38;;;;;;;16.70;61.11;98895.63;5033007;28;20033;-78
2022/05/26 00:16:45;;;;;;;8.35;1.52;;;;;;;16.67;61.55;98901.59;5032173;28;20045;-77
2022/05/26 00:19:13;;;;;;;2.47;1.17;;;;;;;16.65;61.36;98897.56;5032683;28;20497;-81
2022/05/26 00:21:38;;;;;;;1.27;1.17;;;;;;;16.64;61.85;98901.38;5031708;28;20052;-80
2022/05/26 00:24:05;;;;;;;1.30;1.20;;;;;;;16.64;61.18;98904.06;5031692;28;20025;-80
2022/05/26 00:26:30;;;;;;;4.88;1.50;;;;;;;16.59;61.77;98891.44;5033962;28;20045;-80
2022/05/26 00:28:55;;;;;;;1.75;1.42;;;;;;;16.63;61.37;98897.06;5029726;28;20033;-78
2022/05/26 00:31:21;;;;;;;3.00;1.73;;;;;;;16.61;61.65;98900.03;5031532;28;20494;-81
2022/05/26 00:33:46;;;;;;;1.40;1.30;;;;;;;16.57;61.79;98899.03;5033111;28;20065;-78
2022/05/26 00:36:14;;;;;;;2.58;1.50;;;;;;;16.55;61.65;98900.38;5031168;28;20780;-78
2022/05/26 00:38:39;;;;;;;2.75;1.65;;;;;;;16.54;61.79;98898.78;5010285;28;20456;-76
2022/05/26 00:41:08;;;;;;;7.50;1.63;;;;;;;16.53;61.57;98902.56;5029411;28;20060;-78
2022/05/26 00:43:34;;;;;;;3.97;1.40;;;;;;;16.54;61.67;98898.78;5027371;28;20021;-77
2022/05/26 00:46:17;;;;;;;4.38;1.92;;;;;;;16.47;61.71;98894.50;5026874;28;20037;-81
2022/05/26 00:48:47;;;;;;;4.18;1.60;;;;;;;16.51;61.67;98892.09;5027493;28;20418;-79
2022/05/26 00:51:15;;;;;;;9.32;1.80;;;;;;;16.51;62.20;98893.97;5030964;28;20033;-80
2022/05/26 00:53:46;;;;;;;3.13;1.48;;;;;;;16.48;62.18;98890.72;5032009;28;20025;-78
2022/05/26 00:56:22;;;;;;;1.63;1.52;;;;;;;16.42;62.38;98896.44;5032714;28;20127;-78
2022/05/26 00:58:53;;;;;;;3.25;1.52;;;;;;;16.46;62.37;98901.00;5013577;28;20041;-81
2022/05/26 01:01:19;;;;;;;2.67;1.23;;;;;;;16.42;62.67;98891.84;5030330;28;20033;-81
2022/05/26 01:03:51;;;;;;;3.33;1.50;;;;;;;16.42;62.53;98886.47;5031428;28;20018;-79
2022/05/26 01:06:38;;;;;;;1.70;1.52;;;;;;;16.40;62.50;98891.31;5031020;28;20033;-80
2022/05/26 01:09:05;;;;;;;5.05;1.50;;;;;;;16.46;62.01;98895.59;5031564;28;20045;-80
2022/05/26 01:11:35;;;;;;;1.45;1.20;;;;;;;16.47;62.22;98907.97;5029723;28;20041;-79
2022/05/26 01:14:21;;;;;;;2.28;1.25;;;;;;;16.46;62.95;98892.91;5033584;28;20115;-81
2022/05/26 01:17:03;;;;;;;3.70;1.50;;;;;;;16.49;63.19;98907.66;5027450;28;20062;-81
2022/05/26 01:20:10;;;;;;;1.92;1.80;;;;;;;16.47;63.27;98902.56;5031483;28;20025;-81
2022/05/26 01:22:47;;;;;;;4.38;1.75;;;;;;;16.49;63.04;98908.47;5023109;28;20594;-80
2022/05/26 01:25:43;;;;;;;1.52;1.42;;;;;;;16.47;63.36;98910.66;5010064;28;20053;-80
2022/05/26 01:28:56;;;;;;;4.30;1.30;;;;;;;16.47;63.42;98912.53;5025911;28;20037;-81
2022/05/26 01:31:47;;;;;;;4.88;1.77;;;;;;;16.42;63.45;98902.63;5026188;28;20026;-82
2022/05/26 01:34:36;;;;;;;3.55;1.48;;;;;;;16.44;62.85;98908.56;5029905;28;20063;-81
2022/05/26 01:37:07;;;;;;;6.10;2.95;;;;;;;16.42;63.66;98908.00;5029479;28;20494;-82
2022/05/26 01:39:46;;;;;;;4.43;1.73;;;;;;;16.45;62.92;98910.16;5024100;28;20051;-83
2022/05/26 01:42:28;;;;;;;3.65;1.38;;;;;;;16.45;62.83;98914.72;5028246;28;20026;-82
2022/05/26 01:45:13;;;;;;;3.13;1.55;;;;;;;16.45;63.54;98907.44;5030762;28;20048;-81
2022/05/26 01:47:49;;;;;;;1.80;1.50;;;;;;;16.44;63.67;98903.16;5029149;28;20029;-78
2022/05/26 01:50:23;;;;;;;1.98;1.35;;;;;;;16.41;62.67;98901.03;5032356;28;20056;-79
2022/05/26 01:53:09;;;;;;;2.65;1.45;;;;;;;16.40;63.17;98904.81;5026580;28;20417;-76
2022/05/26 01:55:46;;;;;;;2.03;1.05;;;;;;;16.37;63.06;98908.09;5025304;28;20040;-78
2022/05/26 01:58:18;;;;;;;1.80;1.30;;;;;;;16.36;62.95;98902.94;5026393;28;20108;-77
2022/05/26 02:00:45;;;;;;;2.67;1.42;;;;;;;16.39;63.08;98908.59;5027608;28;20037;-78
2022/05/26 02:03:18;;;;;;;2.22;1.23;;;;;;;16.41;63.21;98906.41;5028124;28;20397;-77
2022/05/26 02:06:06;;;;;;;3.28;1.35;;;;;;;16.40;62.98;98907.50;5027745;28;20112;-77
2022/05/26 02:08:37;;;;;;;2.95;1.20;;;;;;;16.39;63.38;98905.09;5026677;28;20355;-77
2022/05/26 02:11:11;;;;;;;5.45;1.58;;;;;;;16.41;63.41;98909.13;5027117;28;20021;-79
2022/05/26 02:13:46;;;;;;;1.42;1.25;;;;;;;16.41;62.93;98911.81;5030667;28;20075;-76
2022/05/26 02:16:18;;;;;;;3.13;1.10;;;;;;;16.38;63.42;98909.66;5025871;28;20048;-77
2022/05/26 02:18:52;;;;;;;1.52;1.20;;;;;;;16.40;63.24;98907.50;5023744;28;20025;-77
2022/05/26 02:21:24;;;;;;;2.05;1.33;;;;;;;16.40;63.81;98912.09;5027222;28;20083;-78
2022/05/26 02:24:04;;;;;;;9.80;1.50;;;;;;;16.41;63.35;98903.72;5024676;28;20124;-78
2022/05/26 02:26:31;;;;;;;43.60;5.60;;;;;;;16.40;63.37;98901.31;5023467;28;20079;-79
2022/05/26 02:31:42;;;;;;;3.13;1.67;;;;;;;16.36;63.66;98909.16;5026965;28;20501;-78
2022/05/26 02:34:09;;;;;;;2.17;1.38;;;;;;;16.36;63.10;98908.34;5023935;28;20041;-78
2022/05/26 02:36:37;;;;;;;2.05;1.48;;;;;;;16.31;63.52;98905.72;5008896;28;20064;-78
2022/05/26 02:39:04;;;;;;;4.53;1.38;;;;;;;16.31;63.91;98894.94;5018088;28;20033;-78
2022/05/26 02:41:31;;;;;;;3.05;1.23;;;;;;;16.26;63.87;98901.19;5026073;28;20038;-77
2022/05/26 02:43:58;;;;;;;6.53;1.60;;;;;;;16.26;63.70;98901.19;5028649;28;20458;-76
2022/05/26 02:46:26;;;;;;;5.95;2.03;;;;;;;16.21;64.38;98900.41;5023659;28;20081;-78
2022/05/26 02:48:57;;;;;;;3.08;1.60;;;;;;;16.25;64.14;98902.25;5026430;28;20029;-79
2022/05/26 02:51:28;;;;;;;3.60;2.25;;;;;;;16.22;63.70;98902.84;5026457;28;20033;-78
2022/05/26 02:54:15;;;;;;;2.78;1.50;;;;;;;16.20;63.82;98899.63;5023502;28;20056;-77
2022/05/26 02:57:14;;;;;;;6.65;1.75;;;;;;;16.20;63.64;98906.91;5021194;28;20037;-78
2022/05/26 03:00:00;;;;;;;2.67;1.40;;;;;;;16.20;64.46;98904.19;5025348;28;20029;-78
2022/05/26 03:02:36;;;;;;;4.57;1.63;;;;;;;16.16;64.30;98895.88;5030016;28;20032;-78
2022/05/26 03:05:17;;;;;;;1.38;1.27;;;;;;;16.17;63.84;98900.19;5025921;28;20469;-79
2022/05/26 03:07:46;;;;;;;2.97;1.40;;;;;;;16.17;64.50;98904.75;5032853;28;20065;-77
2022/05/26 03:10:12;;;;;;;3.28;1.50;;;;;;;16.12;64.82;98902.91;5028649;28;20030;-77
2022/05/26 03:12:38;;;;;;;2.65;1.23;;;;;;;16.13;64.52;98901.84;5027101;28;20047;-76
2022/05/26 03:15:06;;;;;;;3.33;1.60;;;;;;;16.16;63.98;98908.56;5029040;28;20025;-76
2022/05/26 03:17:32;;;;;;;3.67;1.70;;;;;;;16.17;64.39;98908.25;5030584;28;20112;-77
2022/05/26 03:19:57;;;;;;;6.68;1.55;;;;;;;16.16;63.74;98909.34;5024800;28;20120;-77
2022/05/26 03:22:23;;;;;;;3.40;1.90;;;;;;;16.13;64.40;98912.59;5029747;28;20029;-77
2022/05/26 03:24:48;;;;;;;5.38;2.20;;;;;;;16.10;64.51;98912.34;5029720;28;20041;-76
2022/05/26 03:27:14;;;;;;;3.65;1.63;;;;;;;16.17;64.47;98918.22;5031432;28;20048;-76
2022/05/26 03:29:40;;;;;;;1.55;1.45;;;;;;;16.15;64.45;98912.31;5026461;28;20029;-77
2022/05/26 03:32:06;;;;;;;4.82;1.65;;;;;;;16.13;nan;98909.91;5031905;28;21809;-76
2022/05/26 03:42:46;;;;;;;6.28;1.85;;;;;;;16.09;65.16;98919.66;5029019;28;20504;-76
2022/05/26 03:45:13;;;;;;;2.33;1.95;;;;;;;16.13;64.74;98925.25;5029573;28;20474;-74
2022/05/26 03:47:39;;;;;;;2.90;2.22;;;;;;;16.13;65.10;98925.25;5027928;28;20034;-74
2022/05/26 03:50:05;;;;;;;3.00;2.28;;;;;;;16.13;65.17;98930.66;5027107;28;20167;-74
2022/05/26 03:52:31;;;;;;;2.55;1.85;;;;;;;16.10;65.18;98926.63;5023287;28;20042;-75
2022/05/26 03:54:56;;;;;;;2.15;1.98;;;;;;;16.09;65.43;98935.81;5029666;28;20398;-75
2022/05/26 03:57:26;;;;;;;4.95;1.63;;;;;;;16.09;65.42;98935.00;5029077;28;20033;-75
2022/05/26 03:59:52;;;;;;;2.30;2.10;;;;;;;16.08;65.27;98939.56;5029738;28;20033;-75
2022/05/26 04:02:17;;;;;;;2.30;2.05;;;;;;;16.10;65.27;98947.34;5025842;28;20025;-75
2022/05/26 04:04:42;;;;;;;6.43;2.38;;;;;;;16.07;66.00;98946.06;5026816;28;20014;-75
2022/05/26 04:07:08;;;;;;;1.90;1.80;;;;;;;16.08;65.81;98946.84;5025036;28;20116;-75
2022/05/26 04:09:33;;;;;;;3.10;2.40;;;;;;;16.08;65.67;98950.34;5028604;28;20034;-75
2022/05/26 04:11:58;;;;;;;2.25;2.05;;;;;;;16.10;65.84;98950.88;5030654;28;20039;-75
2022/05/26 04:14:24;;;;;;;1.80;1.70;;;;;;;16.07;65.95;98959.53;5023991;28;20014;-74
2022/05/26 04:16:49;;;;;;;2.00;1.88;;;;;;;16.13;65.78;98954.88;5024665;28;20060;-76
2022/05/26 04:19:14;;;;;;;4.28;2.08;;;;;;;16.12;65.79;98956.75;5028763;28;20053;-75
2022/05/26 04:22:14;;;;;;;3.15;2.30;;;;;;;16.12;65.50;98967.53;5030017;28;20140;-76
2022/05/26 04:24:25;;;;;;;4.30;2.05;;;;;;;16.12;65.43;98956.75;5028855;28;20087;-76
2022/05/26 04:26:50;;;;;;;2.75;2.17;;;;;;;16.13;65.85;98971.84;5028906;28;20041;-76
2022/05/26 04:29:15;;;;;;;5.38;2.13;;;;;;;16.10;65.69;98961.63;5027738;28;20095;-75
2022/05/26 04:31:41;;;;;;;3.60;2.45;;;;;;;16.12;66.14;98966.75;5028610;28;20124;-75
2022/05/26 04:34:06;;;;;;;4.22;2.50;;;;;;;16.14;65.88;98976.13;5025116;28;20537;-76
2022/05/26 04:36:31;;;;;;;2.28;2.13;;;;;;;16.14;65.76;98984.22;5027289;28;20029;-76
2022/05/26 04:38:56;;;;;;;5.15;2.55;;;;;;;16.18;66.07;98985.28;5029739;28;20048;-76
2022/05/26 04:41:22;;;;;;;3.38;1.90;;;;;;;16.18;66.09;98984.47;5025433;28;20571;-76
2022/05/26 04:43:47;;;;;;;4.25;2.28;;;;;;;16.18;66.67;98982.59;5028364;28;20029;-77
2022/05/26 04:46:12;;;;;;;3.50;1.75;;;;;;;16.20;66.12;98990.38;5027425;28;20040;-76
2022/05/26 04:48:38;;;;;;;4.13;2.20;;;;;;;16.22;65.94;98986.31;5027797;28;20116;-77
2022/05/26 04:51:03;;;;;;;2.75;1.90;;;;;;;16.20;66.04;98980.41;5028254;28;20059;-75
2022/05/26 04:53:31;;;;;;;2.10;1.90;;;;;;;16.19;66.77;98984.19;5008057;28;20661;-76
2022/05/26 04:55:56;;;;;;;2.53;1.88;;;;;;;16.24;65.75;98976.06;5028582;28;20509;-74
2022/05/26 04:58:22;;;;;;;2.30;2.08;;;;;;;16.22;66.54;98990.91;5024767;28;20129;-75
2022/05/26 05:00:47;;;;;;;3.70;2.53;;;;;;;16.22;66.22;98983.63;5027516;28;20049;-76
2022/05/26 05:03:12;;;;;;;3.03;2.58;;;;;;;16.23;66.60;98993.31;5027289;28;20032;-75
2022/05/26 05:05:38;;;;;;;2.38;2.17;;;;;;;16.23;66.73;98990.63;5030358;28;20033;-78
2022/05/26 05:08:03;;;;;;;2.53;2.08;;;;;;;16.25;66.84;98996.53;5027504;28;20045;-76
2022/05/26 05:10:28;;;;;;;3.33;2.25;;;;;;;16.21;66.90;98986.59;5029891;28;20033;-79
2022/05/26 05:12:56;;;;;;;2.85;1.98;;;;;;;16.23;67.37;98987.13;5028644;28;20034;-76
2022/05/26 05:15:28;;;;;;;4.68;2.30;;;;;;;16.21;66.90;98994.66;5028372;28;20034;-76
2022/05/26 05:17:53;;;;;;;2.38;2.00;;;;;;;16.23;66.60;98989.81;5023911;28;20087;-75
2022/05/26 05:20:18;;;;;;;6.60;2.42;;;;;;;16.23;67.11;98996.00;5029418;28;20033;-75
2022/05/26 05:22:50;;;;;;;3.55;2.20;;;;;;;16.21;66.96;98998.19;5026688;28;20387;-76
2022/05/26 05:25:26;;;;;;;2.65;2.10;;;;;;;16.25;66.84;98995.75;5029675;28;20103;-74
2022/05/26 05:27:54;;;;;;;;;;;;;;;16.25;67.40;99007.28;5026729;28;20040;-77
2022/05/26 05:30:26;;;;;;;2.92;2.20;;;;;;;16.28;67.27;99008.63;5028996;28;19916;-76
2022/05/26 05:32:59;;;;;;;2.30;2.10;;;;;;;16.25;67.15;99007.28;5023071;28;20037;-74
2022/05/26 05:35:28;;;;;;;5.35;2.40;;;;;;;16.26;67.62;98998.16;5022704;28;20057;-74
2022/05/26 05:37:55;;;;;;;2.50;2.30;;;;;;;16.26;67.62;99005.41;5027743;28;20140;-77
2022/05/26 05:40:20;;;;;;;17.75;2.88;;;;;;;16.28;67.11;99012.13;5029683;28;20061;-76
2022/05/26 05:42:46;;;;;;;5.05;1.98;;;;;;;16.30;67.52;99009.16;5028061;28;20074;-77
2022/05/26 05:45:11;;;;;;;4.22;2.13;;;;;;;16.31;67.86;99011.59;5027205;28;20025;-77
2022/05/26 05:47:36;;;;;;;3.40;1.90;;;;;;;16.32;67.31;99010.47;5010635;28;20033;-76
2022/05/26 05:50:02;;;;;;;3.85;1.95;;;;;;;16.38;67.16;99024.72;5026609;28;20037;-76
2022/05/26 05:52:27;;;;;;;2.58;2.13;;;;;;;16.36;67.58;99010.72;5026454;28;20044;-74
2022/05/26 05:54:55;;;;;;;2.10;1.88;;;;;;;16.39;68.11;99021.75;5025464;28;20036;-74
2022/05/26 05:57:21;;;;;;;4.00;2.17;;;;;;;16.38;67.72;99022.03;5026787;28;20029;-75
2022/05/26 05:59:48;;;;;;;5.00;2.33;;;;;;;16.37;67.92;99012.34;5029170;28;22341;-77
2022/05/26 06:02:14;;;;;;;5.95;2.45;;;;;;;16.40;67.34;99020.66;5011528;28;20029;-77
2022/05/26 06:04:42;;;;;;;2.58;1.90;;;;;;;16.43;67.39;99019.28;5025498;28;20029;-78
2022/05/26 06:07:19;;;;;;;2.90;2.40;;;;;;;16.41;67.28;99026.84;5028382;28;20022;-76
2022/05/26 06:09:45;;;;;;;2.70;2.13;;;;;;;16.51;66.91;99037.59;5024112;28;20406;-75
2022/05/26 06:12:12;;;;;;;3.97;2.22;;;;;;;16.53;67.61;99038.13;5021866;28;20047;-75
2022/05/26 06:14:38;;;;;;;5.10;2.45;;;;;;;16.53;67.82;99042.69;5028141;28;20105;-77
2022/05/26 06:17:05;;;;;;;5.18;2.22;;;;;;;16.50;67.58;99044.06;5026375;28;20148;-78
2022/05/26 06:19:31;;;;;;;4.47;2.30;;;;;;;16.48;67.73;99041.63;5028710;28;20112;-77
2022/05/26 06:21:56;;;;;;;3.25;2.83;;;;;;;16.48;67.98;99040.81;5026673;28;20117;-79
2022/05/26 06:24:25;;;;;;;2.83;2.40;;;;;;;16.46;68.04;99041.09;5030245;28;20544;-75
2022/05/26 06:26:50;;;;;;;3.42;2.20;;;;;;;16.46;67.36;99051.88;5029511;28;20034;-76
2022/05/26 06:37:30;;;;;;;4.68;3.22;;;;;;;16.54;67.92;99076.63;5032721;28;20091;-77
2022/05/26 06:39:56;;;;;;;3.22;2.83;;;;;;;16.52;67.97;99071.53;5030687;28;20117;-80
2022/05/26 06:42:24;;;;;;;3.03;2.63;;;;;;;16.53;67.84;99083.91;5032424;28;20554;-83
2022/05/26 06:44:50;;;;;;;4.00;2.63;;;;;;;16.53;68.41;99085.81;5016324;28;20026;-77
2022/05/26 06:47:18;;;;;;;4.18;2.65;;;;;;;16.51;68.65;99087.97;5031791;28;20121;-77
2022/05/26 06:49:44;;;;;;;4.88;2.97;;;;;;;16.52;68.50;99086.88;5029341;28;20128;-76
2022/05/26 06:52:10;;;;;;;5.47;3.10;;;;;;;16.48;68.84;99092.81;5028162;28;20052;-76
2022/05/26 06:54:39;;;;;;;7.03;3.22;;;;;;;16.45;69.31;99092.56;5033727;28;20041;-79
2022/05/26 06:57:05;;;;;;;4.65;3.58;;;;;;;16.47;69.02;99098.47;5034951;28;20048;-80
2022/05/26 06:59:31;;;;;;;5.18;3.90;;;;;;;16.48;69.03;99094.69;5037119;28;20034;-75
2022/05/26 07:01:56;;;;;;;6.18;3.00;;;;;;;16.47;69.47;99083.09;5030859;28;20040;-79
2022/05/26 07:04:22;;;;;;;7.10;3.53;;;;;;;16.54;68.93;99093.59;5035955;28;20048;-80
2022/05/26 07:06:53;;;;;;;6.45;3.10;;;;;;;16.59;68.77;99100.84;5031619;28;20099;-76
2022/05/26 07:09:19;;;;;;;5.43;3.70;;;;;;;16.62;69.09;99100.28;5020951;28;20445;-77
2022/05/26 07:11:45;;;;;;;4.43;2.78;;;;;;;16.66;68.65;99101.34;5022782;28;20402;-76
2022/05/26 07:14:12;;;;;;;5.05;3.03;;;;;;;16.63;68.55;99093.81;5030621;28;20045;-76
2022/05/26 07:16:38;;;;;;;4.32;3.30;;;;;;;16.68;68.79;99097.28;5028468;28;20076;-77
2022/05/26 07:19:03;;;;;;;3.60;3.30;;;;;;;16.68;68.91;99105.38;5028204;28;20422;-77
2022/05/26 07:21:28;;;;;;;5.03;2.83;;;;;;;16.68;68.88;99110.75;5030909;28;20059;-77
2022/05/26 07:23:53;;;;;;;7.55;3.53;;;;;;;16.72;68.87;99110.97;5026778;28;20030;-77
2022/05/26 07:26:19;;;;;;;3.55;3.10;;;;;;;16.77;68.90;99119.03;5031550;28;20490;-77
2022/05/26 07:28:44;;;;;;;5.07;3.40;;;;;;;16.78;68.52;99123.31;5030432;28;20382;-78
2022/05/26 07:31:12;;;;;;;4.90;3.17;;;;;;;16.81;68.61;99125.47;5031567;28;20694;-77
2022/05/26 07:33:37;;;;;;;4.75;3.42;;;;;;;16.85;68.45;99126.50;5031788;28;20092;-78
2022/05/26 07:36:03;;;;;;;8.10;2.50;;;;;;;16.88;68.06;99120.56;5028489;28;20785;-77
2022/05/26 07:41:24;;;;;;;8.82;3.42;;;;;;;16.96;68.96;99118.06;5022361;28;20040;-77
2022/05/26 07:43:57;;;;;;;3.85;3.28;;;;;;;17.06;68.73;99109.06;5028391;28;20401;-77
2022/05/26 07:46:23;;;;;;;3.22;2.90;;;;;;;17.17;68.21;99115.97;5029549;28;20033;-76
2022/05/26 07:48:49;;;;;;;2.88;2.60;;;;;;;17.24;67.62;99119.97;5030182;28;20064;-76
2022/05/26 07:51:15;;;;;;;4.32;3.05;;;;;;;17.41;66.99;99118.72;5029033;28;20077;-77
2022/05/26 07:53:40;;;;;;;7.07;3.50;;;;;;;17.52;67.00;99115.66;5030263;28;20030;-78
2022/05/26 07:56:06;;;;;;;4.90;3.67;;;;;;;17.53;66.75;99116.44;5032360;28;20029;-77
2022/05/26 07:58:34;;;;;;;6.07;4.22;;;;;;;17.62;67.40;99118.25;5025163;28;20029;-78
2022/05/26 08:01:01;;;;;;;6.57;4.80;;;;;;;17.63;66.82;99124.44;5025662;28;20033;-78
2022/05/26 08:03:26;;;;;;;7.32;5.32;;;;;;;17.64;66.70;99129.56;5028969;28;20033;-77
2022/05/26 08:05:52;;;;;;;11.48;4.82;;;;;;;17.61;67.24;99129.31;5030960;28;20234;-77
2022/05/26 08:08:18;;;;;;;7.32;4.65;;;;;;;17.60;66.63;99133.94;5026870;28;20029;-77
2022/05/26 08:10:43;;;;;;;6.32;4.88;;;;;;;17.56;66.80;99138.25;5031187;28;20067;-77
2022/05/26 08:13:08;;;;;;;8.00;5.25;;;;;;;17.57;67.27;99142.59;5031201;28;20037;-77
2022/05/26 08:15:34;;;;;;;6.03;4.35;;;;;;;17.58;67.06;99138.78;5028676;28;20048;-77
2022/05/26 08:18:00;;;;;;;8.48;4.55;;;;;;;17.60;67.71;99149.31;5032620;28;20054;-76
2022/05/26 08:20:26;;;;;;;5.07;4.25;;;;;;;17.62;67.11;99156.03;5034758;28;20025;-77
2022/05/26 08:22:51;;;;;;;5.07;4.55;;;;;;;17.61;67.03;99157.13;5028472;28;20064;-77
2022/05/26 08:25:17;;;;;;;4.82;4.25;;;;;;;17.54;66.98;99158.56;5032433;28;20041;-76
2022/05/26 08:27:42;;;;;;;6.88;4.75;;;;;;;17.46;66.84;99164.53;5028290;28;20079;-77
2022/05/26 08:30:08;;;;;;;9.52;5.00;;;;;;;17.51;66.43;99168.03;5030650;28;20021;-77
2022/05/26 08:32:34;;;;;;;8.30;5.10;;;;;;;17.57;65.85;99166.06;5029599;28;20545;-76
2022/05/26 08:35:04;;;;;;;11.23;5.43;;;;;;;17.64;65.57;99163.84;5029716;28;20057;-77
2022/05/26 08:37:30;;;;;;;8.35;5.10;;;;;;;17.71;65.54;99162.41;5026640;28;20037;-77
2022/05/26 08:39:55;;;;;;;5.90;5.10;;;;;;;17.73;65.59;99162.13;5028737;28;20196;-79
2022/05/26 08:42:31;;;;;;;5.25;4.70;;;;;;;17.73;66.02;99164.81;5026644;28;20498;-77
2022/05/26 08:45:11;;;;;;;5.95;4.35;;;;;;;17.71;66.41;99178.59;5029658;28;20014;-77
2022/05/26 08:47:48;;;;;;;7.65;5.20;;;;;;;17.69;66.22;99185.41;5023446;28;20076;-76
2022/05/26 08:50:25;;;;;;;6.82;4.40;;;;;;;17.68;66.42;99189.97;5010862;28;20120;-78
2022/05/26 08:53:12;;;;;;;7.57;4.97;;;;;;;17.67;66.21;99188.34;5026110;28;20452;-77
2022/05/26 08:55:44;;;;;;;5.25;4.40;;;;;;;17.67;65.52;99199.16;5028651;28;20191;-77
2022/05/26 08:58:15;;;;;;;4.38;3.97;;;;;;;17.66;65.71;99197.56;5026178;28;20086;-77
2022/05/26 09:00:42;;;;;;;7.13;4.60;;;;;;;17.68;65.57;99192.69;5027251;28;20025;-77
2022/05/26 09:03:22;;;;;;;8.32;4.57;;;;;;;17.75;65.20;99181.53;5027548;28;20040;-77
2022/05/26 09:05:53;;;;;;;4.32;3.90;;;;;;;17.85;65.42;99187.63;5031841;28;20037;-77
2022/05/26 09:13:51;;;;;;;10.95;4.70;;;;;;;18.12;64.95;99199.75;5026175;28;20555;-78
2022/05/26 09:16:17;;;;;;;5.18;4.65;;;;;;;18.18;64.09;99196.69;5029976;28;20029;-76
2022/05/26 09:18:44;;;;;;;5.38;4.18;;;;;;;18.18;64.11;99196.69;5026985;28;20029;-76
2022/05/26 09:21:21;;;;;;;5.50;4.22;;;;;;;18.21;64.30;99212.34;5030641;28;20029;-76
2022/05/26 09:23:47;;;;;;;6.55;4.15;;;;;;;18.23;63.96;99212.03;5030828;28;20056;-76
2022/05/26 09:26:17;;;;;;;6.20;4.57;;;;;;;18.21;64.01;99216.94;5031401;28;20479;-76
2022/05/26 09:28:51;;;;;;;7.10;4.00;;;;;;;18.17;64.58;99216.72;5029009;28;20056;-77
2022/05/26 09:31:32;;;;;;;4.25;3.85;;;;;;;18.14;64.57;99217.28;5029628;28;20029;-76
2022/05/26 09:34:10;;;;;;;5.82;3.72;;;;;;;18.08;64.41;99217.63;5029962;28;20060;-78
2022/05/26 09:36:46;;;;;;;4.72;4.05;;;;;;;17.98;64.43;99227.47;5027529;28;20599;-78
2022/05/26 09:39:13;;;;;;;5.18;4.28;;;;;;;17.96;63.78;99234.22;5025530;28;20025;-76
2022/05/26 09:41:49;;;;;;;4.95;4.35;;;;;;;17.97;63.89;99233.94;5027457;28;20046;-78
2022/05/26 09:44:37;;;;;;;10.60;4.60;;;;;;;17.90;64.43;99243.50;5028832;28;20024;-77
2022/05/26 09:47:26;;;;;;;7.78;4.28;;;;;;;18.02;64.10;99235.00;5027405;28;20050;-78
2022/05/26 09:49:55;;;;;;;6.05;4.25;;;;;;;18.05;63.89;99242.50;5027705;28;20037;-78
2022/05/26 09:52:25;;;;;;;6.28;3.78;;;;;;;18.11;63.83;99236.75;5028086;28;20041;-78
2022/05/26 09:55:24;;;;;;;5.57;4.70;;;;;;;18.17;63.92;99234.81;5029545;28;20029;-78
2022/05/26 09:58:06;;;;;;;6.93;4.10;;;;;;;18.20;63.36;99235.03;5004856;28;20042;-78
2022/05/26 10:00:37;;;;;;;7.43;4.35;;;;;;;18.32;63.63;99237.34;5028463;28;20104;-78
2022/05/26 10:03:12;;;;;;;4.55;4.15;;;;;;;18.29;63.68;99237.91;5026747;28;20214;-77
2022/05/26 10:05:47;;;;;;;7.55;4.20;;;;;;;18.33;63.85;99244.34;5029069;28;20037;-78
2022/05/26 10:08:27;;;;;;;12.43;4.45;;;;;;;18.40;63.73;99245.59;5025875;28;20529;-79
2022/05/26 10:11:01;;;;;;;9.50;4.65;;;;;;;18.55;63.47;99241.94;5027638;28;20460;-78
2022/05/26 10:13:55;;;;;;;6.35;4.25;;;;;;;18.70;63.27;99247.94;5044625;28;20033;-77
2022/05/26 10:16:25;;;;;;;5.03;4.30;;;;;;;18.83;62.97;99242.91;5028566;28;20105;-77
2022/05/26 10:19:11;;;;;;;8.32;4.35;;;;;;;18.91;62.55;99248.47;5029747;28;20056;-76
2022/05/26 10:21:55;;;;;;;5.85;3.85;;;;;;;19.04;62.76;99247.75;5026597;28;20083;-77
2022/05/26 10:24:48;;;;;;;4.60;4.10;;;;;;;19.10;62.08;99246.56;5024662;28;20056;-76
2022/05/26 10:27:39;;;;;;;5.88;4.57;;;;;;;19.11;62.12;99250.84;5028261;28;20021;-76
2022/05/26 10:30:46;;;;;;;18.13;4.47;;;;;;;19.19;61.71;99260.22;5026024;28;20026;-76
2022/05/26 10:33:18;;;;;;;6.75;4.93;;;;;;;19.14;61.46;99249.47;5015839;28;20041;-77
2022/05/26 10:35:58;;;;;;;6.38;4.53;;;;;;;19.16;61.59;99256.19;5030439;28;20029;-77
2022/05/26 10:38:32;;;;;;;8.98;5.68;;;;;;;19.14;61.18;99252.97;5028809;28;20025;-76
2022/05/26 10:41:25;;;;;;;6.45;5.18;;;;;;;19.18;61.34;99245.88;5029214;28;20478;-78
2022/05/26 10:44:01;;;;;;;9.57;6.18;;;;;;;19.28;61.59;99251.16;5027774;28;20038;-76
2022/05/26 10:46:28;;;;;;;6.40;4.75;;;;;;;19.29;61.35;99258.16;5029171;28;20040;-77
2022/05/26 10:49:17;;;;;;;9.48;5.40;;;;;;;19.34;61.34;99235.63;5045645;28;20033;-76
2022/05/26 10:51:53;;;;;;;9.27;5.32;;;;;;;19.45;60.79;99253.34;5025420;28;20049;-77
2022/05/26 10:54:40;;;;;;;10.88;5.78;;;;;;;19.50;60.39;99252.44;5030248;28;20087;-77
2022/05/26 10:57:25;;;;;;;8.98;5.60;;;;;;;19.58;59.48;99243.63;5025771;28;21752;-77
2022/05/26 11:00:01;;;;;;;9.68;5.30;;;;;;;19.76;59.26;99234.66;5029856;28;20029;-77
2022/05/26 11:02:32;;;;;;;;;;;;;;;19.93;58.79;99238.38;5023710;28;20029;-76
2022/05/26 11:05:05;;;;;;;6.82;5.25;;;;;;;20.08;58.77;99240.00;5029494;28;19917;-78
2022/05/26 11:07:33;;;;;;;7.88;6.25;;;;;;;20.06;59.06;99244.91;5028656;28;20037;-78
2022/05/26 11:10:07;;;;;;;7.07;5.50;;;;;;;19.99;59.09;99241.78;5029266;28;20040;-78
2022/05/26 11:12:37;;;;;;;5.45;4.88;;;;;;;19.95;59.22;99246.22;5026658;28;20037;-79
2022/05/26 11:18:18;;;;;;;10.20;5.85;;;;;;;19.68;58.85;99265.94;5027341;28;20160;-78
2022/05/26 11:20:53;;;;;;;6.82;5.75;;;;;;;19.54;58.73;99256.97;5025229;28;20037;-78
2022/05/26 11:23:20;;;;;;;5.95;5.15;;;;;;;19.48;59.27;99257.34;5029542;28;20037;-78
2022/05/26 11:26:06;;;;;;;5.93;5.32;;;;;;;19.42;58.95;99253.91;5029954;28;20030;-78
2022/05/26 11:28:40;;;;;;;9.43;6.63;;;;;;;19.42;58.99;99251.19;5027815;28;20040;-77
2022/05/26 11:36:52;;;;;;;10.75;7.28;;;;;;;19.62;58.47;99261.69;5029581;28;20039;-77
2022/05/26 11:39:24;;;;;;;15.68;8.77;;;;;;;19.71;56.93;99259.91;5013895;28;20037;-80
2022/05/26 11:42:01;;;;;;;22.27;9.45;;;;;;;19.59;56.64;99256.09;5029021;28;20029;-79
2022/05/26 11:44:56;;;;;;;18.30;10.25;;;;;;;19.64;56.75;99243.25;5029380;28;20103;-76
2022/05/26 11:47:54;;;;;;;14.60;8.95;;;;;;;19.54;56.95;99253.47;5030634;28;20026;-77
2022/05/26 11:50:32;;;;;;;13.13;8.32;;;;;;;19.52;57.33;99250.25;5028630;28;20044;-78
2022/05/26 11:53:00;;;;;;;15.02;8.75;;;;;;;19.59;57.04;99256.09;5031650;28;20029;-76
2022/05/26 11:55:46;;;;;;;15.75;7.82;;;;;;;19.68;57.29;99265.13;5029728;28;20037;-77
2022/05/26 11:58:33;;;;;;;9.63;7.53;;;;;;;19.72;55.58;99261.53;5029666;28;20065;-76
2022/05/26 12:01:21;;;;;;;16.55;8.68;;;;;;;19.82;55.49;99258.66;5030386;28;20112;-78
2022/05/26 12:04:02;;;;;;;12.05;8.02;;;;;;;19.80;55.82;99257.31;5029938;28;20044;-78
2022/05/26 12:06:41;;;;;;;13.55;7.40;;;;;;;19.85;55.45;99259.97;5032548;28;20064;-77
2022/05/26 12:09:18;;;;;;;13.43;8.13;;;;;;;19.80;55.88;99251.91;5033376;28;20048;-77
2022/05/26 12:12:08;;;;;;;9.20;6.85;;;;;;;19.88;55.55;99251.22;5031123;28;20029;-76
2022/05/26 12:14:56;;;;;;;7.60;6.80;;;;;;;20.00;56.30;99249.66;5025311;28;20391;-76
2022/05/26 12:17:33;;;;;;;7.95;7.00;;;;;;;20.01;55.68;99240.41;5029763;28;20037;-78
2022/05/26 12:20:11;;;;;;;9.05;7.10;;;;;;;20.05;55.40;99252.25;5028784;28;20088;-78
2022/05/26 12:22:41;;;;;;;12.45;6.88;;;;;;;19.97;55.78;99254.84;5031023;28;20029;-78
2022/05/26 12:25:28;;;;;;;10.05;6.68;;;;;;;19.89;56.14;99267.19;5029180;28;20121;-76
2022/05/26 12:28:14;;;;;;;8.80;6.65;;;;;;;19.79;56.39;99269.28;5027671;28;20053;-77
2022/05/26 12:30:46;;;;;;;8.45;6.75;;;;;;;19.67;56.12;99275.16;5032012;28;20053;-77
2022/05/26 12:33:17;;;;;;;8.15;6.65;;;;;;;19.51;56.27;99264.88;5029933;28;20398;-76